Time;durP1;ratioP1;P1;durP2;ratioP2;P2;SDS_P1;SDS_P2;PMS_P1;PMS_P2;Temp;Humidity;BMP_temperature;BMP_pressure;BME280_temperature;BME280_humidity;BME280_pressure;Samples;Min_cycle;Max_cycle;Signal;HPM_P1;HPM_P2
2023/11/27 00:00:29;;;;;;;1.10;1.07;;;7.00;99.90;;;;;;4988985;28;21082;-84
2023/11/27 00:02:55;;;;;;;1.17;1.17;;;6.80;99.90;;;;;;4999012;28;20682;-84
2023/11/27 00:05:22;;;;;;;0.87;0.87;;;6.80;99.90;;;;;;5005482;28;20227;-84
2023/11/27 00:07:48;;;;;;;1.57;1.20;;;7.00;99.90;;;;;;5005816;28;20219;-85
2023/11/27 00:10:14;;;;;;;1.67;1.57;;;7.00;99.90;;;;;;4997215;28;20288;-85
2023/11/27 00:12:40;;;;;;;15.50;2.00;;;6.80;99.90;;;;;;5012823;28;21098;-84
2023/11/27 00:15:07;;;;;;;1.13;1.13;;;6.90;99.90;;;;;;4980856;28;20186;-85
2023/11/27 00:17:33;;;;;;;0.60;0.60;;;7.00;99.90;;;;;;4989810;28;20229;-85
2023/11/27 00:19:59;;;;;;;3.33;3.13;;;7.10;99.90;;;;;;4998322;28;20219;-83
2023/11/27 00:22:25;;;;;;;2.83;1.80;;;6.90;99.90;;;;;;4990114;28;20241;-86
2023/11/27 00:24:51;;;;;;;1.83;1.73;;;7.10;99.90;;;;;;4996314;28;20249;-86
2023/11/27 00:27:17;;;;;;;2.17;1.93;;;7.10;99.90;;;;;;4995185;28;20191;-83
2023/11/27 00:29:44;;;;;;;1.23;1.20;;;7.00;99.90;;;;;;4997499;28;20616;-85
2023/11/27 00:32:10;;;;;;;4.07;2.40;;;7.00;99.90;;;;;;4983201;28;20232;-84
2023/11/27 00:34:35;;;;;;;4.23;4.03;;;7.10;99.90;;;;;;4979596;28;20226;-85
2023/11/27 00:37:01;;;;;;;3.73;3.40;;;7.00;99.90;;;;;;4983051;28;20284;-86
2023/11/27 00:39:27;;;;;;;5.30;2.03;;;7.00;99.90;;;;;;4980169;28;21168;-86
2023/11/27 00:41:53;;;;;;;4.83;3.80;;;7.00;99.90;;;;;;4997129;28;20667;-84
2023/11/27 00:44:18;;;;;;;2.67;2.43;;;7.10;99.90;;;;;;5009594;28;20675;-84
2023/11/27 00:46:44;;;;;;;3.90;3.60;;;7.10;99.90;;;;;;5009384;28;20223;-84
2023/11/27 00:49:10;;;;;;;2.50;2.30;;;7.10;99.90;;;;;;4987279;28;20218;-84
2023/11/27 00:51:35;;;;;;;2.10;1.93;;;7.20;99.90;;;;;;4987434;28;20198;-84
2023/11/27 00:54:01;;;;;;;4.00;3.00;;;7.10;99.90;;;;;;4991184;28;20190;-85
2023/11/27 00:56:27;;;;;;;5.70;3.63;;;7.20;99.90;;;;;;4999244;28;20249;-83
2023/11/27 00:58:53;;;;;;;4.60;4.17;;;7.00;99.90;;;;;;4974793;28;21134;-83
2023/11/27 01:01:19;;;;;;;4.80;3.83;;;7.30;99.90;;;;;;4961312;28;20753;-83
2023/11/27 01:03:45;;;;;;;3.37;3.07;;;7.10;99.90;;;;;;4984355;28;20790;-84
2023/11/27 01:06:13;;;;;;;5.80;5.00;;;7.10;99.90;;;;;;4953546;28;20196;-83
2023/11/27 01:08:40;;;;;;;3.20;2.90;;;7.20;99.90;;;;;;4984339;28;20303;-83
2023/11/27 01:11:06;;;;;;;3.63;3.33;;;7.10;99.90;;;;;;4961776;28;20224;-84
2023/11/27 01:13:32;;;;;;;3.60;3.20;;;7.00;99.90;;;;;;4984472;28;20223;-86
2023/11/27 01:15:57;;;;;;;4.60;1.97;;;7.00;99.90;;;;;;4952745;28;20212;-86
2023/11/27 01:18:24;;;;;;;4.83;4.00;;;7.20;99.90;;;;;;4978558;28;20215;-82
2023/11/27 01:20:50;;;;;;;5.50;2.93;;;7.30;99.90;;;;;;4988788;28;20184;-85
2023/11/27 01:23:16;;;;;;;2.90;2.57;;;7.20;99.90;;;;;;4981499;28;20318;-83
2023/11/27 01:25:41;;;;;;;5.53;5.07;;;7.20;99.90;;;;;;4955424;28;20318;-84
2023/11/27 01:28:08;;;;;;;3.60;3.40;;;7.30;99.90;;;;;;4955041;28;20298;-85
2023/11/27 01:30:34;;;;;;;2.90;2.77;;;7.20;99.90;;;;;;4987256;28;20203;-84
2023/11/27 01:32:59;;;;;;;2.33;2.10;;;7.40;99.90;;;;;;4988895;28;20665;-85
2023/11/27 01:35:25;;;;;;;3.77;3.27;;;7.10;99.90;;;;;;4964153;28;20251;-84
2023/11/27 01:37:51;;;;;;;5.93;3.93;;;7.10;99.90;;;;;;4988598;28;20278;-84
2023/11/27 01:40:17;;;;;;;4.33;3.50;;;7.30;99.90;;;;;;4956157;28;20239;-86
2023/11/27 01:42:43;;;;;;;4.13;3.50;;;7.10;99.90;;;;;;4987879;28;20318;-83
2023/11/27 01:45:09;;;;;;;3.23;3.03;;;7.30;99.90;;;;;;5002859;28;20188;-85
2023/11/27 01:47:35;;;;;;;4.40;4.10;;;7.30;99.90;;;;;;4964097;28;20223;-85
2023/11/27 01:50:00;;;;;;;4.30;2.20;;;7.20;99.90;;;;;;4988084;28;20215;-86
2023/11/27 01:52:27;;;;;;;3.73;2.53;;;7.10;99.90;;;;;;5004727;28;20301;-86
2023/11/27 01:54:55;;;;;;;3.60;3.20;;;7.20;99.90;;;;;;4970902;28;20227;-85
2023/11/27 01:57:22;;;;;;;5.53;3.27;;;7.10;99.90;;;;;;5011572;28;20204;-84
2023/11/27 01:59:51;;;;;;;7.57;3.00;;;7.30;99.90;;;;;;5003404;28;20227;-86
2023/11/27 02:02:17;;;;;;;6.03;2.97;;;7.10;99.90;;;;;;5006869;28;20238;-84
2023/11/27 02:04:43;;;;;;;3.40;3.10;;;7.00;99.90;;;;;;5008222;28;20215;-85
2023/11/27 02:07:10;;;;;;;4.40;3.33;;;7.10;99.90;;;;;;5023957;28;20226;-85
2023/11/27 02:09:36;;;;;;;6.93;4.23;;;7.10;99.90;;;;;;4991473;28;20191;-83
2023/11/27 02:12:02;;;;;;;1.70;1.57;;;7.00;99.90;;;;;;5008010;28;20202;-84
2023/11/27 02:14:28;;;;;;;3.67;3.00;;;7.00;99.90;;;;;;4989122;28;20216;-85
2023/11/27 02:16:53;;;;;;;3.57;3.27;;;6.80;99.90;;;;;;4990827;28;20813;-83
2023/11/27 02:19:19;;;;;;;2.50;2.13;;;6.80;99.90;;;;;;4990848;28;20215;-83
2023/11/27 02:21:45;;;;;;;2.03;1.47;;;6.90;99.90;;;;;;5004842;28;20309;-84
2023/11/27 02:24:11;;;;;;;2.80;1.77;;;6.60;99.90;;;;;;4991495;28;20191;-84
2023/11/27 02:26:37;;;;;;;4.43;3.03;;;6.80;99.90;;;;;;4991042;28;20222;-84
2023/11/27 02:29:03;;;;;;;2.47;2.27;;;6.70;99.90;;;;;;5007361;28;20223;-86
2023/11/27 02:31:30;;;;;;;3.67;3.33;;;6.70;99.90;;;;;;5007102;28;20277;-84
2023/11/27 02:33:56;;;;;;;3.53;3.03;;;6.70;99.90;;;;;;5007393;28;20242;-84
2023/11/27 02:36:24;;;;;;;2.57;2.47;;;6.70;99.90;;;;;;4988323;28;20660;-84
2023/11/27 02:38:50;;;;;;;2.43;2.23;;;6.70;99.90;;;;;;5002732;28;20202;-86
2023/11/27 02:41:16;;;;;;;3.93;3.50;;;6.60;99.90;;;;;;5002106;28;20678;-84
2023/11/27 02:43:42;;;;;;;3.03;2.80;;;6.60;99.90;;;;;;4997817;28;20218;-85
2023/11/27 02:46:08;;;;;;;2.40;2.20;;;6.50;99.90;;;;;;4982550;28;20230;-84
2023/11/27 02:48:34;;;;;;;1.97;1.87;;;6.60;99.90;;;;;;4999485;28;20187;-85
2023/11/27 02:51:00;;;;;;;2.57;2.37;;;6.40;99.90;;;;;;4984558;28;20199;-83
2023/11/27 02:53:26;;;;;;;2.53;2.40;;;6.60;99.90;;;;;;5006332;28;20277;-85
2023/11/27 02:55:52;;;;;;;1.93;1.80;;;6.60;99.90;;;;;;4985158;28;20310;-84
2023/11/27 02:58:17;;;;;;;2.77;2.67;;;6.40;99.90;;;;;;5019979;28;20602;-85
2023/11/27 03:00:43;;;;;;;2.67;2.47;;;6.40;99.90;;;;;;4988249;28;20222;-85
2023/11/27 03:03:09;;;;;;;1.17;1.17;;;6.50;99.90;;;;;;5006811;28;20225;-84
2023/11/27 03:05:35;;;;;;;1.70;1.63;;;6.30;99.90;;;;;;5009014;28;20235;-85
2023/11/27 03:08:02;;;;;;;2.07;1.90;;;6.30;99.90;;;;;;5009173;28;20218;-86
2023/11/27 03:10:28;;;;;;;2.13;2.03;;;6.30;99.90;;;;;;4999336;28;20300;-85
2023/11/27 03:12:54;;;;;;;3.63;3.33;;;6.20;99.90;;;;;;4992540;28;21286;-86
2023/11/27 03:15:20;;;;;;;1.10;1.10;;;6.40;99.90;;;;;;4990302;28;20646;-85
2023/11/27 03:17:46;;;;;;;2.80;2.70;;;6.30;99.90;;;;;;5009250;28;20717;-86
2023/11/27 03:20:13;;;;;;;0.90;0.90;;;6.40;99.90;;;;;;4992755;28;20689;-86
2023/11/27 03:22:39;;;;;;;2.10;2.00;;;6.20;99.90;;;;;;5008082;28;20235;-86
2023/11/27 03:25:05;;;;;;;1.97;1.80;;;6.50;99.90;;;;;;5025052;28;20703;-86
2023/11/27 03:27:32;;;;;;;2.40;2.20;;;6.20;99.90;;;;;;4991710;28;20191;-86
2023/11/27 03:29:57;;;;;;;3.47;3.23;;;6.50;99.90;;;;;;5026221;28;20226;-86
2023/11/27 03:32:23;;;;;;;0.90;0.90;;;6.20;99.90;;;;;;5008919;28;20276;-86
2023/11/27 03:34:49;;;;;;;1.50;1.27;;;6.20;99.90;;;;;;5000763;28;20222;-86
2023/11/27 03:37:15;;;;;;;2.00;1.27;;;6.40;99.90;;;;;;4991229;28;20241;-86
2023/11/27 03:39:41;;;;;;;5.10;2.03;;;6.20;99.90;;;;;;4983572;28;20250;-85
2023/11/27 03:42:06;;;;;;;1.40;1.40;;;6.20;99.90;;;;;;5023875;28;20234;-85
2023/11/27 03:44:32;;;;;;;3.10;2.57;;;6.30;99.90;;;;;;5025511;28;21055;-84
2023/11/27 03:46:58;;;;;;;1.40;1.40;;;6.40;99.90;;;;;;5007888;28;20238;-85
2023/11/27 03:49:24;;;;;;;1.00;1.00;;;6.20;99.90;;;;;;4976127;28;20214;-84
2023/11/27 03:51:49;;;;;;;3.73;2.87;;;6.00;99.90;;;;;;4983358;28;20875;-85
2023/11/27 03:54:15;;;;;;;1.93;1.57;;;6.00;99.90;;;;;;5008347;28;20198;-85
2023/11/27 03:56:41;;;;;;;0.90;0.90;;;6.30;99.90;;;;;;5007766;28;20225;-87
2023/11/27 03:59:08;;;;;;;2.50;2.40;;;6.00;99.90;;;;;;5025220;28;20344;-86
2023/11/27 04:01:33;;;;;;;1.23;1.13;;;6.30;99.90;;;;;;5014546;28;20579;-83
2023/11/27 04:03:59;;;;;;;2.47;1.63;;;6.10;99.90;;;;;;5016675;28;20254;-83
2023/11/27 04:06:31;;;;;;;0.87;0.83;;;6.30;99.90;;;;;;4983452;28;20209;-84
2023/11/27 04:09:01;;;;;;;0.70;0.70;;;6.30;99.90;;;;;;5006141;28;20635;-86
2023/11/27 04:11:27;;;;;;;2.83;1.87;;;6.00;99.90;;;;;;5007776;28;20226;-83
2023/11/27 04:13:59;;;;;;;0.43;0.43;;;6.00;99.90;;;;;;4967175;28;20226;-86
2023/11/27 04:16:25;;;;;;;1.57;0.87;;;6.20;99.90;;;;;;4991658;28;20249;-84
2023/11/27 04:18:51;;;;;;;0.30;0.30;;;6.20;99.90;;;;;;4990866;28;20749;-84
2023/11/27 04:21:17;;;;;;;1.47;1.47;;;6.20;99.90;;;;;;5015899;28;20182;-83
2023/11/27 04:23:47;;;;;;;2.57;2.37;;;6.30;99.90;;;;;;5022491;28;20225;-86
2023/11/27 04:26:15;;;;;;;1.50;1.23;;;6.20;99.90;;;;;;5007999;28;20318;-86
2023/11/27 04:28:40;;;;;;;1.43;1.37;;;5.90;99.90;;;;;;5024529;28;20226;-85
2023/11/27 04:31:08;;;;;;;0.80;0.70;;;6.30;99.90;;;;;;5000469;28;20229;-86
2023/11/27 04:33:34;;;;;;;2.30;1.00;;;6.20;99.90;;;;;;5007436;28;20195;-84
2023/11/27 04:36:00;;;;;;;0.53;0.53;;;6.20;99.90;;;;;;5008141;28;20201;-85
2023/11/27 04:38:26;;;;;;;0.70;0.70;;;5.80;99.90;;;;;;4999933;28;20223;-86
2023/11/27 04:40:52;;;;;;;0.97;0.80;;;6.20;99.90;;;;;;4990615;28;20261;-86
2023/11/27 04:43:18;;;;;;;0.83;0.83;;;6.00;99.90;;;;;;4974841;28;20228;-85
2023/11/27 04:45:44;;;;;;;2.30;2.20;;;6.30;99.90;;;;;;4981889;28;20227;-85
2023/11/27 04:48:10;;;;;;;1.90;1.80;;;6.20;99.90;;;;;;5016458;28;20635;-86
2023/11/27 04:50:36;;;;;;;0.70;0.70;;;6.20;99.90;;;;;;5006848;28;20257;-85
2023/11/27 04:53:02;;;;;;;1.57;1.57;;;6.10;99.90;;;;;;4992047;28;20305;-86
2023/11/27 04:55:27;;;;;;;0.50;0.50;;;6.00;99.90;;;;;;4995354;28;20325;-84
2023/11/27 04:57:53;;;;;;;0.30;0.30;;;6.10;99.90;;;;;;4994968;28;21108;-85
2023/11/27 05:00:19;;;;;;;1.00;1.00;;;6.00;99.90;;;;;;5008969;28;20222;-85
2023/11/27 05:02:45;;;;;;;1.23;0.93;;;6.00;99.90;;;;;;5010652;28;20269;-86
2023/11/27 05:05:16;;;;;;;0.90;0.90;;;6.20;99.90;;;;;;4989112;28;20578;-86
2023/11/27 05:07:42;;;;;;;3.87;2.93;;;6.00;99.90;;;;;;5001433;28;20218;-86
2023/11/27 05:10:10;;;;;;;0.53;0.53;;;6.00;99.90;;;;;;4995512;28;20222;-85
2023/11/27 05:12:35;;;;;;;1.43;1.33;;;5.90;99.90;;;;;;5010869;28;20213;-85
2023/11/27 05:15:05;;;;;;;3.10;1.40;;;6.10;99.90;;;;;;4987861;28;20179;-85
2023/11/27 05:17:31;;;;;;;2.37;2.23;;;6.20;99.90;;;;;;5010662;28;20226;-84
2023/11/27 05:19:57;;;;;;;2.93;1.07;;;5.80;99.90;;;;;;4994337;28;20214;-85
2023/11/27 05:22:23;;;;;;;1.80;1.70;;;5.90;99.90;;;;;;4994652;28;20315;-86
2023/11/27 05:24:49;;;;;;;1.67;1.57;;;6.00;99.90;;;;;;5001423;28;21109;-85
2023/11/27 05:27:14;;;;;;;1.57;1.57;;;5.80;99.90;;;;;;4994822;28;21218;-84
2023/11/27 05:29:40;;;;;;;1.50;1.43;;;6.10;99.90;;;;;;5010642;28;20232;-85
2023/11/27 05:32:09;;;;;;;2.10;1.90;;;6.00;99.90;;;;;;4985964;28;20309;-85
2023/11/27 05:34:38;;;;;;;2.83;2.63;;;6.10;99.90;;;;;;5004658;28;20249;-86
2023/11/27 05:37:08;;;;;;;0.97;0.73;;;6.10;99.90;;;;;;5027560;28;20772;-86
2023/11/27 05:39:35;;;;;;;1.47;1.37;;;6.20;99.90;;;;;;5003820;28;20187;-87
2023/11/27 05:42:02;;;;;;;0.87;0.87;;;5.90;99.90;;;;;;4994218;28;20612;-87
2023/11/27 05:44:29;;;;;;;1.43;1.33;;;6.20;99.90;;;;;;5020554;28;20280;-86
2023/11/27 05:46:55;;;;;;;0.40;0.40;;;6.10;99.90;;;;;;4993288;28;20297;-85
2023/11/27 05:49:21;;;;;;;1.23;1.23;;;5.90;99.90;;;;;;4994317;28;20282;-86
2023/11/27 05:51:46;;;;;;;1.53;1.20;;;6.00;99.90;;;;;;4999994;28;20692;-86
2023/11/27 05:54:12;;;;;;;1.20;1.20;;;6.00;99.90;;;;;;4986499;28;20183;-85
2023/11/27 05:56:38;;;;;;;1.77;1.70;;;5.90;99.90;;;;;;5002251;28;20581;-86
2023/11/27 05:59:04;;;;;;;1.50;1.27;;;6.20;99.90;;;;;;5009965;28;20234;-86
2023/11/27 06:01:31;;;;;;;1.57;1.47;;;6.10;99.90;;;;;;5001649;28;20226;-84
2023/11/27 06:03:57;;;;;;;1.80;1.50;;;5.90;99.90;;;;;;5000143;28;20222;-85
2023/11/27 06:06:23;;;;;;;1.67;1.57;;;5.90;99.90;;;;;;5010183;28;20247;-84
2023/11/27 06:08:49;;;;;;;0.80;0.67;;;6.00;99.90;;;;;;4994695;28;20191;-86
2023/11/27 06:11:15;;;;;;;0.20;0.20;;;5.90;99.90;;;;;;5003823;28;20218;-87
2023/11/27 06:13:41;;;;;;;1.17;1.03;;;5.80;99.90;;;;;;5009996;28;20238;-86
2023/11/27 06:16:10;;;;;;;1.43;1.30;;;6.10;99.90;;;;;;4994167;28;20670;-85
2023/11/27 06:18:36;;;;;;;2.00;1.17;;;6.00;99.90;;;;;;4995065;28;20194;-86
2023/11/27 06:21:03;;;;;;;1.43;1.40;;;6.00;99.90;;;;;;5028874;28;20582;-87
2023/11/27 06:23:29;;;;;;;0.87;0.87;;;5.90;99.90;;;;;;5019386;28;20623;-87
2023/11/27 06:25:56;;;;;;;0.83;0.83;;;5.90;99.90;;;;;;5000305;28;20235;-86
2023/11/27 06:28:22;;;;;;;0.60;0.60;;;5.80;99.90;;;;;;5009419;28;20317;-85
2023/11/27 06:30:47;;;;;;;0.73;0.63;;;6.10;99.90;;;;;;4991869;28;20322;-85
2023/11/27 06:33:13;;;;;;;0.63;0.63;;;5.80;99.90;;;;;;4996056;28;20609;-85
2023/11/27 06:35:39;;;;;;;0.87;0.80;;;6.00;99.90;;;;;;4997283;28;20221;-85
2023/11/27 06:38:05;;;;;;;1.57;1.47;;;6.10;99.90;;;;;;4988486;28;20222;-86
2023/11/27 06:40:30;;;;;;;0.93;0.80;;;5.70;99.90;;;;;;4994802;28;21091;-86
2023/11/27 06:42:56;;;;;;;2.40;1.47;;;5.70;99.90;;;;;;4994857;28;21147;-86
2023/11/27 06:45:22;;;;;;;0.80;0.80;;;6.00;99.90;;;;;;4979816;28;20194;-84
2023/11/27 06:47:48;;;;;;;0.50;0.50;;;6.10;99.90;;;;;;5004601;28;20717;-86
2023/11/27 06:50:17;;;;;;;0.80;0.73;;;5.70;99.90;;;;;;4989698;28;20214;-86
2023/11/27 06:52:43;;;;;;;0.50;0.50;;;5.90;99.90;;;;;;4997948;28;20218;-84
2023/11/27 06:55:09;;;;;;;0.97;0.97;;;5.70;99.90;;;;;;4997049;28;20292;-86
2023/11/27 06:57:35;;;;;;;0.73;0.67;;;5.70;99.90;;;;;;5004330;28;20195;-84
2023/11/27 07:00:02;;;;;;;1.93;1.30;;;6.00;99.90;;;;;;4980187;28;20230;-87
2023/11/27 07:02:30;;;;;;;1.87;1.73;;;5.90;99.90;;;;;;5008205;28;20233;-85
2023/11/27 07:04:57;;;;;;;0.40;0.40;;;5.70;99.90;;;;;;5007581;28;20688;-88
2023/11/27 07:07:23;;;;;;;2.00;1.90;;;5.90;99.90;;;;;;5008073;28;20292;-86
2023/11/27 07:09:48;;;;;;;0.57;0.57;;;5.90;99.90;;;;;;4991889;28;20238;-85
2023/11/27 07:12:16;;;;;;;0.70;0.70;;;5.80;99.90;;;;;;5004546;28;20187;-86
2023/11/27 07:14:42;;;;;;;1.43;1.33;;;5.70;99.90;;;;;;4991676;28;20272;-85
2023/11/27 07:17:07;;;;;;;1.30;1.20;;;5.80;99.90;;;;;;5013469;28;20222;-90
2023/11/27 07:19:33;;;;;;;0.37;0.37;;;6.00;99.90;;;;;;5002267;28;20207;-87
2023/11/27 07:22:01;;;;;;;0.90;0.90;;;6.00;99.90;;;;;;5007445;28;20337;-86
2023/11/27 07:24:30;;;;;;;0.50;0.50;;;5.70;99.90;;;;;;5004638;28;20195;-87
2023/11/27 07:26:56;;;;;;;0.43;0.43;;;6.00;99.90;;;;;;5005285;28;20277;-88
2023/11/27 07:29:21;;;;;;;0.77;0.73;;;5.90;99.90;;;;;;4994715;28;20214;-87
2023/11/27 07:31:47;;;;;;;0.80;0.77;;;5.70;99.90;;;;;;4978802;28;20219;-87
2023/11/27 07:34:14;;;;;;;0.40;0.40;;;5.80;99.90;;;;;;4995369;28;20210;-87
2023/11/27 07:36:40;;;;;;;1.37;1.27;;;5.90;99.90;;;;;;4993887;28;20662;-87
2023/11/27 07:39:10;;;;;;;1.23;1.17;;;6.00;99.90;;;;;;5002119;28;20677;-87
2023/11/27 07:41:37;;;;;;;0.87;0.87;;;5.80;99.90;;;;;;5003761;28;20229;-85
2023/11/27 07:44:03;;;;;;;1.10;1.00;;;5.80;99.90;;;;;;4995180;28;20219;-86
2023/11/27 07:46:28;;;;;;;0.67;0.67;;;5.80;99.90;;;;;;5020408;28;20313;-87
2023/11/27 07:48:54;;;;;;;0.23;0.23;;;5.80;99.90;;;;;;4990022;28;20221;-87
2023/11/27 07:51:23;;;;;;;2.40;0.90;;;6.00;99.90;;;;;;4992354;28;20205;-86
2023/11/27 07:53:49;;;;;;;0.80;0.80;;;5.80;99.90;;;;;;4998966;28;20474;-87
2023/11/27 07:56:33;;;;;;;0.47;0.47;;;5.80;99.90;;;;;;5008255;28;20214;-86
2023/11/27 07:59:00;;;;;;;0.97;0.87;;;5.90;99.90;;;;;;5000614;28;20240;-85
2023/11/27 08:01:28;;;;;;;0.97;0.97;;;5.90;99.90;;;;;;4990952;28;20225;-87
2023/11/27 08:03:54;;;;;;;0.30;0.30;;;5.80;99.90;;;;;;5008220;28;20226;-86
2023/11/27 08:06:21;;;;;;;0.90;0.90;;;6.00;99.90;;;;;;5008031;28;20225;-88
2023/11/27 08:08:47;;;;;;;2.57;2.37;;;6.10;99.90;;;;;;5007385;28;20715;-87
2023/11/27 08:11:13;;;;;;;1.73;1.63;;;5.70;99.90;;;;;;5008694;28;20218;-87
2023/11/27 08:13:43;;;;;;;1.00;1.00;;;5.70;99.90;;;;;;4990774;28;20656;-88
2023/11/27 08:16:09;;;;;;;0.80;0.80;;;5.70;99.90;;;;;;4992079;28;21150;-87
2023/11/27 08:18:38;;;;;;;1.17;1.07;;;6.00;99.90;;;;;;4990747;28;20182;-88
2023/11/27 08:21:05;;;;;;;1.27;1.03;;;5.80;99.90;;;;;;5006578;28;20197;-87
2023/11/27 08:23:34;;;;;;;0.73;0.73;;;5.70;99.90;;;;;;4998546;28;20226;-88
2023/11/27 08:26:03;;;;;;;0.40;0.40;;;5.70;99.90;;;;;;5007103;28;20230;-88
2023/11/27 08:28:29;;;;;;;0.50;0.50;;;5.90;99.90;;;;;;4999159;28;20218;-87
2023/11/27 08:30:55;;;;;;;1.43;1.33;;;5.70;99.90;;;;;;5022108;28;20222;-87
2023/11/27 08:33:21;;;;;;;1.10;1.10;;;5.70;99.90;;;;;;4991957;28;20671;-86
2023/11/27 08:35:46;;;;;;;0.60;0.60;;;5.90;99.90;;;;;;5008146;28;20213;-86
2023/11/27 08:38:12;;;;;;;0.80;0.80;;;5.70;99.90;;;;;;4985865;28;20316;-87
2023/11/27 08:40:39;;;;;;;0.27;0.27;;;5.80;99.90;;;;;;5006254;28;20226;-86
2023/11/27 08:43:05;;;;;;;2.03;1.93;;;5.90;99.90;;;;;;5007630;28;20318;-88
2023/11/27 08:45:32;;;;;;;0.90;0.90;;;5.70;99.90;;;;;;4990905;28;20289;-86
2023/11/27 08:48:00;;;;;;;1.10;0.97;;;5.70;99.90;;;;;;5008455;28;20178;-85
2023/11/27 08:50:32;;;;;;;0.73;0.73;;;5.70;99.90;;;;;;5023776;28;20223;-87
2023/11/27 08:52:59;;;;;;;0.60;0.60;;;5.90;99.90;;;;;;5002632;28;20248;-87
2023/11/27 08:55:29;;;;;;;0.93;0.93;;;5.90;99.90;;;;;;5015310;28;20225;-87
2023/11/27 08:57:58;;;;;;;0.47;0.47;;;5.90;99.90;;;;;;5023747;28;20257;-88
2023/11/27 09:00:28;;;;;;;0.70;0.70;;;6.00;99.90;;;;;;5007719;28;20228;-88
2023/11/27 09:02:58;;;;;;;0.63;0.63;;;5.90;99.90;;;;;;5005676;28;20919;-87
2023/11/27 09:05:31;;;;;;;0.27;0.27;;;6.00;99.90;;;;;;5005916;28;20222;-86
2023/11/27 09:08:00;;;;;;;0.97;0.93;;;5.60;99.90;;;;;;5022342;28;20825;-88
2023/11/27 09:10:26;;;;;;;2.00;1.17;;;5.70;99.90;;;;;;5006158;28;20219;-88
2023/11/27 09:12:51;;;;;;;2.67;1.27;;;5.90;99.90;;;;;;4999451;28;20225;-83
2023/11/27 09:15:18;;;;;;;0.97;0.97;;;6.00;99.90;;;;;;4996588;28;20550;-87
2023/11/27 09:17:46;;;;;;;0.97;0.60;;;5.90;99.90;;;;;;4983239;28;20229;-85
2023/11/27 09:20:12;;;;;;;0.50;0.50;;;5.70;99.90;;;;;;4989055;28;21016;-87
2023/11/27 09:22:39;;;;;;;0.47;0.47;;;5.60;99.90;;;;;;4986107;28;20314;-86
2023/11/27 09:25:09;;;;;;;0.47;0.47;;;5.60;99.90;;;;;;5000218;28;20570;-85
2023/11/27 09:27:43;;;;;;;1.43;1.33;;;5.80;99.90;;;;;;5005336;28;20190;-87
2023/11/27 09:30:09;;;;;;;0.40;0.40;;;5.60;99.90;;;;;;5002246;28;20179;-84
2023/11/27 09:32:41;;;;;;;0.50;0.50;;;5.70;99.90;;;;;;4985308;28;20328;-88
2023/11/27 09:35:10;;;;;;;1.27;1.27;;;5.60;99.90;;;;;;5004540;28;20215;-87
2023/11/27 09:37:37;;;;;;;2.10;1.90;;;5.60;99.90;;;;;;5007741;28;20206;-87
2023/11/27 09:40:05;;;;;;;1.00;0.97;;;5.50;99.90;;;;;;5007813;28;20347;-86
2023/11/27 09:42:39;;;;;;;0.37;0.37;;;5.60;99.90;;;;;;4984929;28;20233;-84
2023/11/27 09:45:10;;;;;;;0.30;0.30;;;5.60;99.90;;;;;;5011005;28;20678;-88
2023/11/27 09:47:43;;;;;;;0.87;0.87;;;5.90;99.90;;;;;;5004191;28;20226;-85
2023/11/27 09:50:11;;;;;;;0.47;0.47;;;5.90;99.90;;;;;;4995295;28;20214;-84
2023/11/27 09:52:49;;;;;;;0.57;0.57;;;5.60;99.90;;;;;;5010979;28;20199;-84
2023/11/27 09:55:18;;;;;;;0.77;0.77;;;5.50;99.90;;;;;;5011428;28;20234;-90
2023/11/27 09:57:46;;;;;;;1.00;1.00;;;5.60;99.90;;;;;;5012582;28;20223;-90
2023/11/27 10:00:13;;;;;;;1.43;1.40;;;5.80;99.90;;;;;;5011138;28;20230;-90
2023/11/27 10:02:39;;;;;;;0.50;0.50;;;5.80;99.90;;;;;;5002529;28;20226;-87
2023/11/27 10:05:08;;;;;;;0.77;0.77;;;5.80;99.90;;;;;;4995214;28;20221;-86
2023/11/27 10:07:34;;;;;;;1.10;0.93;;;5.40;99.90;;;;;;5001560;28;20242;-87
2023/11/27 10:10:04;;;;;;;0.73;0.73;;;5.60;99.90;;;;;;5019236;28;20210;-87
2023/11/27 10:12:30;;;;;;;2.50;1.03;;;5.60;99.90;;;;;;5010422;28;20253;-87
2023/11/27 10:14:57;;;;;;;0.97;0.97;;;5.70;99.90;;;;;;4998971;28;20214;-86
2023/11/27 10:17:24;;;;;;;0.73;0.73;;;5.70;99.90;;;;;;5010035;28;20219;-86
2023/11/27 10:19:52;;;;;;;0.80;0.80;;;5.60;99.90;;;;;;5006955;28;20195;-86
2023/11/27 10:22:19;;;;;;;0.53;0.53;;;5.70;99.90;;;;;;5006293;28;20325;-86
2023/11/27 10:24:45;;;;;;;1.37;1.00;;;5.50;99.90;;;;;;5007907;28;20230;-87
2023/11/27 10:27:11;;;;;;;0.63;0.63;;;5.40;99.90;;;;;;5024945;28;20309;-85
2023/11/27 10:29:37;;;;;;;0.37;0.37;;;5.50;99.90;;;;;;5013628;28;20225;-87
2023/11/27 10:32:03;;;;;;;1.67;1.57;;;5.40;99.90;;;;;;5000296;28;20222;-87
2023/11/27 10:34:33;;;;;;;0.20;0.20;;;5.70;99.90;;;;;;4993398;28;20194;-87
2023/11/27 10:37:01;;;;;;;0.33;0.33;;;5.50;99.90;;;;;;4992285;28;20206;-86
2023/11/27 10:39:33;;;;;;;0.33;0.33;;;5.70;99.90;;;;;;5003586;28;20709;-86
2023/11/27 10:42:03;;;;;;;0.97;0.97;;;5.40;99.90;;;;;;4993953;28;20227;-86
2023/11/27 10:44:40;;;;;;;0.20;0.20;;;5.60;99.90;;;;;;5006248;28;20302;-85
2023/11/27 10:47:07;;;;;;;0.33;0.33;;;5.60;99.90;;;;;;5008900;28;20226;-86
2023/11/27 10:49:37;;;;;;;0.60;0.60;;;5.50;99.90;;;;;;5027167;28;20266;-86
2023/11/27 10:52:05;;;;;;;1.70;0.90;;;5.40;99.90;;;;;;5025091;28;20219;-87
2023/11/27 10:54:32;;;;;;;0.63;0.63;;;5.50;99.90;;;;;;5000705;28;20993;-85
2023/11/27 10:57:06;;;;;;;0.43;0.33;;;5.60;99.90;;;;;;4997651;28;20214;-84
2023/11/27 10:59:33;;;;;;;0.50;0.50;;;5.40;99.90;;;;;;5003374;28;20324;-86
2023/11/27 11:02:02;;;;;;;0.20;0.20;;;5.50;99.90;;;;;;4999336;28;23114;-85
2023/11/27 11:04:51;;;;;;;0.30;0.30;;;5.60;99.90;;;;;;5025740;28;20186;-86
2023/11/27 11:07:20;;;;;;;0.30;0.30;;;5.60;99.90;;;;;;5001546;28;20219;-86
2023/11/27 11:09:49;;;;;;;0.30;0.30;;;5.50;99.90;;;;;;5008069;28;20259;-84
2023/11/27 11:12:23;;;;;;;0.43;0.43;;;5.50;99.90;;;;;;5026436;28;20301;-86
2023/11/27 11:14:55;;;;;;;0.20;0.20;;;5.40;99.90;;;;;;5007728;28;20218;-83
2023/11/27 11:17:57;;;;;;;2.83;0.83;;;5.70;99.90;;;;;;5007052;28;20218;-86
2023/11/27 11:20:31;;;;;;;0.20;0.20;;;5.40;99.90;;;;;;4993012;28;20241;-86
2023/11/27 11:23:21;;;;;;;1.43;0.80;;;5.60;99.90;;;;;;5008521;28;20198;-86
2023/11/27 11:26:21;;;;;;;0.73;0.73;;;5.60;99.90;;;;;;4999711;28;20195;-87
2023/11/27 11:28:54;;;;;;;0.50;0.50;;;5.40;99.90;;;;;;4993617;28;20186;-88
2023/11/27 11:31:24;;;;;;;0.40;0.40;;;5.40;99.90;;;;;;5000984;28;20183;-88
2023/11/27 11:33:50;;;;;;;0.20;0.20;;;5.40;99.90;;;;;;4992857;28;20222;-86
2023/11/27 11:36:33;;;;;;;0.30;0.30;;;5.70;99.90;;;;;;5024617;28;20264;-85
2023/11/27 11:38:59;;;;;;;0.43;0.43;;;5.40;99.90;;;;;;5025227;28;20305;-87
2023/11/27 11:41:28;;;;;;;5.73;0.77;;;5.50;99.90;;;;;;5006947;28;20285;-85
2023/11/27 11:44:00;;;;;;;10.63;1.33;;;5.40;99.90;;;;;;5007650;28;20234;-85
2023/11/27 11:46:33;;;;;;;1.47;0.47;;;5.50;99.90;;;;;;4984819;28;20201;-84
2023/11/27 11:49:02;;;;;;;1.10;0.97;;;5.70;99.90;;;;;;5008141;28;20807;-87
2023/11/27 11:51:31;;;;;;;0.20;0.20;;;5.60;99.90;;;;;;4983739;28;20256;-86
2023/11/27 11:53:57;;;;;;;1.27;1.27;;;5.30;99.90;;;;;;4998627;28;20242;-87
2023/11/27 11:56:24;;;;;;;0.73;0.73;;;5.30;99.90;;;;;;5015083;28;20697;-86
2023/11/27 11:58:51;;;;;;;0.20;0.20;;;5.30;99.90;;;;;;4994918;28;20325;-85
2023/11/27 12:01:18;;;;;;;0.20;0.20;;;5.40;99.90;;;;;;5006967;28;20202;-86
2023/11/27 12:03:47;;;;;;;0.40;0.40;;;5.60;99.90;;;;;;4991359;28;20219;-88
2023/11/27 12:06:13;;;;;;;0.73;0.73;;;5.60;99.90;;;;;;4992026;28;20207;-87
2023/11/27 12:08:44;;;;;;;0.83;0.40;;;5.60;99.90;;;;;;5008468;28;20255;-87
2023/11/27 12:11:14;;;;;;;0.57;0.57;;;5.40;99.90;;;;;;4991664;28;20559;-86
2023/11/27 12:13:43;;;;;;;0.43;0.43;;;5.60;99.90;;;;;;5008085;28;20194;-86
2023/11/27 12:16:16;;;;;;;0.30;0.30;;;5.60;99.90;;;;;;5025730;28;20286;-87
2023/11/27 12:18:49;;;;;;;0.60;0.60;;;5.50;99.90;;;;;;5009105;28;20218;-86
2023/11/27 12:21:22;;;;;;;0.37;0.37;;;5.50;99.90;;;;;;5010035;28;20272;-85
2023/11/27 12:23:52;;;;;;;0.30;0.30;;;5.40;99.90;;;;;;5026249;28;20234;-87
2023/11/27 12:26:25;;;;;;;0.87;0.87;;;5.50;99.90;;;;;;5001381;28;20229;-86
2023/11/27 12:28:51;;;;;;;0.20;0.20;;;5.30;99.90;;;;;;5007790;28;20182;-86
2023/11/27 12:31:18;;;;;;;1.03;1.00;;;5.30;99.90;;;;;;4991534;28;20183;-87
2023/11/27 12:33:47;;;;;;;0.73;0.73;;;5.30;99.90;;;;;;5032811;28;20236;-85
2023/11/27 12:36:14;;;;;;;0.83;0.70;;;5.30;99.90;;;;;;5020257;28;20249;-86
2023/11/27 12:38:40;;;;;;;0.90;0.90;;;5.40;99.90;;;;;;5000615;28;20240;-85
2023/11/27 12:41:09;;;;;;;0.30;0.30;;;5.40;99.90;;;;;;4991367;28;20225;-84
2023/11/27 12:43:37;;;;;;;1.20;1.20;;;5.40;99.90;;;;;;5024530;28;20269;-86
2023/11/27 12:46:13;;;;;;;1.63;1.53;;;5.30;99.90;;;;;;5023713;28;20257;-86
2023/11/27 12:48:47;;;;;;;0.60;0.57;;;5.30;99.90;;;;;;5000369;28;20215;-87
2023/11/27 12:51:18;;;;;;;2.57;1.40;;;5.40;99.90;;;;;;4990435;28;20209;-86
2023/11/27 12:53:47;;;;;;;1.73;1.63;;;5.40;99.90;;;;;;5005798;28;20237;-86
2023/11/27 12:56:15;;;;;;;3.00;1.27;;;5.20;99.90;;;;;;4991039;28;20234;-85
2023/11/27 12:58:41;;;;;;;0.37;0.37;;;5.40;99.90;;;;;;5024483;28;20222;-87